createdAt,value
2022-11-06T00:01:43.556Z,23.13
2022-11-06T00:04:37.059Z,24.65
2022-11-06T00:07:21.412Z,24.70
2022-11-06T00:12:50.992Z,21.77
2022-11-06T00:15:39.687Z,23.48
2022-11-06T00:18:31.610Z,25.90
2022-11-06T00:21:28.065Z,25.60
2022-11-06T00:24:09.553Z,24.95
2022-11-06T00:27:10.653Z,32.25
2022-11-06T00:29:54.935Z,28.27
2022-11-06T00:32:35.487Z,30.90
2022-11-06T00:35:16.240Z,26.08
2022-11-06T00:38:02.467Z,30.48
2022-11-06T00:41:00.787Z,31.60
2022-11-06T00:43:56.827Z,31.90
2022-11-06T00:46:39.381Z,33.15
2022-11-06T00:49:16.920Z,36.70
2022-11-06T00:52:00.249Z,35.78
2022-11-06T00:54:45.818Z,36.00
2022-11-06T00:57:32.009Z,40.33
2022-11-06T01:00:20.826Z,35.17
2022-11-06T01:03:08.010Z,36.28
2022-11-06T01:05:53.607Z,32.95
2022-11-06T01:08:40.573Z,32.10
2022-11-06T01:12:06.888Z,38.00
2022-11-06T01:14:48.893Z,32.17
2022-11-06T01:17:32.835Z,38.00
2022-11-06T01:20:24.040Z,35.40
2022-11-06T01:23:11.431Z,37.10
2022-11-06T01:25:59.088Z,33.85
2022-11-06T01:28:49.144Z,31.50
2022-11-06T01:31:29.588Z,33.55
2022-11-06T01:34:10.917Z,28.10
2022-11-06T01:37:01.076Z,31.13
2022-11-06T01:39:49.844Z,29.08
2022-11-06T01:42:45.228Z,31.13
2022-11-06T01:45:32.526Z,35.05
2022-11-06T01:48:11.644Z,39.38
2022-11-06T01:51:00.944Z,37.05
2022-11-06T01:53:49.900Z,35.20
2022-11-06T01:56:39.452Z,36.08
2022-11-06T01:59:21.289Z,32.50
2022-11-06T02:02:05.185Z,43.63
2022-11-06T02:07:44.069Z,39.63
2022-11-06T02:10:25.571Z,34.83
2022-11-06T02:13:15.467Z,37.88
2022-11-06T02:16:27.596Z,45.00
2022-11-06T02:19:21.345Z,36.00
2022-11-06T02:22:47.087Z,37.60
2022-11-06T02:25:57.495Z,31.83
2022-11-06T02:28:42.030Z,38.22
2022-11-06T02:31:27.355Z,36.50
2022-11-06T02:34:15.303Z,35.40
2022-11-06T02:37:15.671Z,33.47
2022-11-06T02:40:03.757Z,35.00
2022-11-06T02:42:52.090Z,38.38
2022-11-06T02:45:41.625Z,36.22
2022-11-06T02:48:31.926Z,40.63
2022-11-06T02:51:21.554Z,39.20
2022-11-06T02:54:04.480Z,36.58
2022-11-06T02:56:42.792Z,35.55
2022-11-06T02:59:27.542Z,35.10
2022-11-06T03:02:25.149Z,34.92
2022-11-06T03:05:14.938Z,28.08
2022-11-06T03:08:08.872Z,32.10
2022-11-06T03:11:19.610Z,30.77
2022-11-06T03:14:04.496Z,30.27
2022-11-06T03:17:07.078Z,32.92
2022-11-06T03:20:04.921Z,34.88
2022-11-06T03:23:04.226Z,34.45
2022-11-06T03:26:00.241Z,34.35
2022-11-06T03:28:47.762Z,35.92
2022-11-06T03:31:42.513Z,33.00
2022-11-06T03:34:27.478Z,36.00
2022-11-06T03:37:34.349Z,37.20
2022-11-06T03:40:21.634Z,31.73
2022-11-06T03:43:05.379Z,34.33
2022-11-06T03:45:46.781Z,32.45
2022-11-06T03:48:39.822Z,31.83
2022-11-06T03:51:32.848Z,31.73
2022-11-06T03:54:38.491Z,28.48
2022-11-06T03:57:24.038Z,28.42
2022-11-06T04:00:06.056Z,26.23
2022-11-06T04:03:08.532Z,28.83
2022-11-06T04:05:54.086Z,27.65
2022-11-06T04:08:51.438Z,26.73
2022-11-06T04:11:48.843Z,27.85
2022-11-06T04:14:35.080Z,27.27
2022-11-06T04:17:17.772Z,25.42
2022-11-06T04:20:11.058Z,25.45
2022-11-06T04:23:06.589Z,27.60
2022-11-06T04:26:40.107Z,23.85
2022-11-06T04:29:54.119Z,23.35
2022-11-06T04:33:16.892Z,25.05
2022-11-06T04:36:26.804Z,23.55
2022-11-06T04:39:28.807Z,22.02
2022-11-06T04:42:32.870Z,21.92
2022-11-06T04:48:12.182Z,24.25
2022-11-06T04:50:57.444Z,29.25
2022-11-06T04:53:39.604Z,28.42
2022-11-06T04:56:25.816Z,31.98
2022-11-06T04:59:09.231Z,31.70
2022-11-06T05:01:52.232Z,35.63
2022-11-06T05:04:32.931Z,39.55
2022-11-06T05:07:18.386Z,43.42
2022-11-06T05:10:05.541Z,40.85
2022-11-06T05:12:58.615Z,39.65
2022-11-06T05:15:45.064Z,37.08
2022-11-06T05:18:32.075Z,36.03
2022-11-06T05:21:28.679Z,37.08
2022-11-06T05:24:09.748Z,34.28
2022-11-06T05:27:01.270Z,37.45
2022-11-06T05:29:43.094Z,34.38
2022-11-06T05:32:31.584Z,31.25
2022-11-06T05:35:18.221Z,33.35
2022-11-06T05:38:12.875Z,33.83
2022-11-06T05:40:54.964Z,33.05
2022-11-06T05:43:38.541Z,30.08
2022-11-06T05:46:47.543Z,28.40
2022-11-06T05:49:37.084Z,27.10
2022-11-06T05:52:22.511Z,30.15
2022-11-06T05:55:13.182Z,27.67
2022-11-06T05:57:56.230Z,27.83
2022-11-06T06:00:43.066Z,26.33
2022-11-06T06:03:32.249Z,28.27
2022-11-06T06:06:16.081Z,27.50
2022-11-06T06:09:01.914Z,26.73
2022-11-06T06:11:46.394Z,31.05
2022-11-06T06:14:33.754Z,28.95
2022-11-06T06:17:16.862Z,30.17
2022-11-06T06:20:04.302Z,33.05
2022-11-06T06:22:44.987Z,29.67
2022-11-06T06:25:28.838Z,25.63
2022-11-06T06:28:21.177Z,27.40
2022-11-06T06:31:01.811Z,26.73
2022-11-06T06:33:46.917Z,27.98
2022-11-06T06:36:27.570Z,30.57
2022-11-06T06:39:16.495Z,28.05
2022-11-06T06:42:10.355Z,27.48
2022-11-06T06:44:51.006Z,30.90
2022-11-06T06:47:38.393Z,29.27
2022-11-06T06:50:22.546Z,27.05
2022-11-06T06:53:19.723Z,27.00
2022-11-06T06:55:59.049Z,27.58
2022-11-06T06:58:50.610Z,27.95
2022-11-06T07:01:39.120Z,27.65
2022-11-06T07:04:20.428Z,27.35
2022-11-06T07:07:01.205Z,32.45
2022-11-06T07:09:46.081Z,31.33
2022-11-06T07:12:24.061Z,32.35
2022-11-06T07:15:08.624Z,31.33
2022-11-06T07:17:56.432Z,30.58
2022-11-06T07:20:54.496Z,30.60
2022-11-06T07:23:34.897Z,32.38
2022-11-06T07:26:24.255Z,33.95
2022-11-06T07:29:10.514Z,32.53
2022-11-06T07:31:59.408Z,30.67
2022-11-06T07:34:50.467Z,33.45
2022-11-06T07:37:39.442Z,34.22
2022-11-06T07:40:25.414Z,31.20
2022-11-06T07:43:15.104Z,31.70
2022-11-06T07:45:50.236Z,30.80
2022-11-06T07:48:28.514Z,35.80
2022-11-06T07:51:23.101Z,34.13
2022-11-06T07:54:03.902Z,35.72
2022-11-06T07:56:58.976Z,32.83
2022-11-06T07:59:43.114Z,35.63
2022-11-06T08:02:26.129Z,28.83
2022-11-06T08:05:17.473Z,26.77
2022-11-06T08:07:59.155Z,28.48
2022-11-06T08:10:47.697Z,31.58
2022-11-06T08:13:39.817Z,34.67
2022-11-06T08:16:27.477Z,42.92
2022-11-06T08:19:05.125Z,42.17
2022-11-06T08:21:51.632Z,44.92
2022-11-06T08:24:41.541Z,39.45
2022-11-06T08:27:34.052Z,38.90
2022-11-06T08:30:20.608Z,36.45
2022-11-06T08:35:57.079Z,42.08
2022-11-06T08:38:38.819Z,45.00
2022-11-06T08:41:18.524Z,46.28
2022-11-06T08:44:11.076Z,49.53
2022-11-06T08:46:59.541Z,44.67
2022-11-06T08:49:50.667Z,41.75
2022-11-06T08:52:33.895Z,38.00
2022-11-06T08:55:28.792Z,38.25
2022-11-06T08:58:14.575Z,36.88
2022-11-06T09:00:55.632Z,37.15
2022-11-06T09:03:40.441Z,38.53
2022-11-06T09:06:22.128Z,33.88
2022-11-06T09:09:10.548Z,31.67
2022-11-06T09:11:58.045Z,31.35
2022-11-06T09:14:39.035Z,31.75
2022-11-06T09:17:24.095Z,30.20
2022-11-06T09:20:01.689Z,34.42
2022-11-06T09:22:42.030Z,32.63
2022-11-06T09:25:25.343Z,31.33
2022-11-06T09:28:18.222Z,32.40
2022-11-06T09:31:10.604Z,32.57
2022-11-06T09:34:03.275Z,28.65
2022-11-06T09:36:51.792Z,34.22
2022-11-06T09:39:38.941Z,34.50
2022-11-06T09:42:32.061Z,34.13
2022-11-06T09:45:30.287Z,39.15
2022-11-06T09:48:26.456Z,42.05
2022-11-06T09:51:15.047Z,40.33
2022-11-06T09:54:10.933Z,28.35
2022-11-06T09:56:58.007Z,29.98
2022-11-06T09:59:47.577Z,21.13
2022-11-06T10:02:52.552Z,24.50
2022-11-06T10:05:48.289Z,26.80
2022-11-06T10:08:36.695Z,23.97
2022-11-06T10:11:18.478Z,23.67
2022-11-06T10:14:29.030Z,18.63
2022-11-06T10:17:17.767Z,19.85
2022-11-06T10:20:14.626Z,20.98
2022-11-06T10:23:15.302Z,15.93
2022-11-06T10:26:42.541Z,17.92
2022-11-06T10:29:45.517Z,13.80
2022-11-06T10:32:47.052Z,14.73
2022-11-06T10:35:47.770Z,13.57
2022-11-06T10:38:34.184Z,14.82
2022-11-06T10:41:33.341Z,15.60
2022-11-06T10:44:27.306Z,17.23
2022-11-06T10:47:08.583Z,11.05
2022-11-06T10:50:06.000Z,11.82
2022-11-06T10:53:25.435Z,14.40
2022-11-06T10:56:54.975Z,11.48
2022-11-06T10:59:40.963Z,9.70
2022-11-06T11:02:46.175Z,11.35
2022-11-06T11:05:46.124Z,13.43
2022-11-06T11:08:33.587Z,13.82
2022-11-06T11:11:51.783Z,13.77
2022-11-06T11:14:36.891Z,11.98
2022-11-06T11:17:24.758Z,14.50
2022-11-06T11:20:11.150Z,9.63
2022-11-06T11:22:52.174Z,11.30
2022-11-06T11:25:37.076Z,10.20
2022-11-06T11:28:42.759Z,8.88
2022-11-06T11:31:33.787Z,9.07
2022-11-06T11:34:22.033Z,9.88
2022-11-06T11:37:11.263Z,8.18
2022-11-06T11:39:59.500Z,9.05
2022-11-06T11:42:42.440Z,9.57
2022-11-06T11:45:25.450Z,11.50
2022-11-06T11:48:22.448Z,12.27
2022-11-06T11:51:33.999Z,16.00
2022-11-06T11:54:26.940Z,13.40
2022-11-06T11:57:12.008Z,13.60
2022-11-06T12:00:00.600Z,12.60
2022-11-06T12:03:13.105Z,13.05
2022-11-06T12:05:57.207Z,10.10
2022-11-06T12:08:41.589Z,9.40
2022-11-06T12:11:36.354Z,10.75
2022-11-06T12:14:40.962Z,8.48
2022-11-06T12:17:25.310Z,9.13
2022-11-06T12:20:12.446Z,10.57
2022-11-06T12:22:56.009Z,12.73
2022-11-06T12:25:45.082Z,10.57
2022-11-06T12:28:31.049Z,11.85
2022-11-06T12:31:45.092Z,10.80
2022-11-06T12:34:48.923Z,11.48
2022-11-06T12:37:40.685Z,17.77
2022-11-06T12:40:44.922Z,22.63
2022-11-06T12:43:33.059Z,7.53
2022-11-06T12:46:37.931Z,8.77
2022-11-06T12:49:46.372Z,21.35
2022-11-06T12:53:06.578Z,19.75
2022-11-06T12:56:10.507Z,18.90
2022-11-06T12:59:22.232Z,9.70
2022-11-06T13:02:16.179Z,7.22
2022-11-06T13:05:21.297Z,20.38
2022-11-06T13:08:17.647Z,8.50
2022-11-06T13:11:00.874Z,7.60
2022-11-06T13:16:53.907Z,7.18
2022-11-06T13:19:55.345Z,5.53
2022-11-06T13:23:08.130Z,7.97
2022-11-06T13:26:15.404Z,8.27
2022-11-06T13:29:07.656Z,5.80
2022-11-06T13:31:57.828Z,7.93
2022-11-06T13:34:59.134Z,7.03
2022-11-06T13:38:01.145Z,10.70
2022-11-06T13:40:48.472Z,9.90
2022-11-06T13:43:37.694Z,11.32
2022-11-06T13:46:38.798Z,11.57
2022-11-06T13:49:57.654Z,14.13
2022-11-06T13:52:54.308Z,6.88
2022-11-06T13:56:16.871Z,6.03
2022-11-06T13:59:34.852Z,11.10
2022-11-06T14:02:54.131Z,13.48
2022-11-06T14:06:02.066Z,12.85
2022-11-06T14:09:22.365Z,14.18
2022-11-06T14:12:14.813Z,10.38
2022-11-06T14:15:11.636Z,18.92
2022-11-06T14:18:09.952Z,18.65
2022-11-06T14:21:27.356Z,21.48
2022-11-06T14:24:47.095Z,14.23
2022-11-06T14:27:45.424Z,10.88
2022-11-06T14:34:07.758Z,16.70
2022-11-06T14:37:08.786Z,11.55
2022-11-06T14:43:24.070Z,14.40
2022-11-06T14:46:23.742Z,20.30
2022-11-06T14:49:13.218Z,18.42
2022-11-06T14:52:22.295Z,12.02
2022-11-06T14:55:34.007Z,18.65
2022-11-06T14:58:46.847Z,20.00
2022-11-06T15:01:57.560Z,16.70
2022-11-06T15:04:53.968Z,18.65
2022-11-06T15:08:13.008Z,27.90
2022-11-06T15:11:01.095Z,20.45
2022-11-06T15:13:53.187Z,25.38
2022-11-06T15:16:49.784Z,24.23
2022-11-06T15:19:40.716Z,34.47
2022-11-06T15:23:04.097Z,29.63
2022-11-06T15:26:17.009Z,26.83
2022-11-06T15:29:15.186Z,22.75
2022-11-06T15:31:57.559Z,19.67
2022-11-06T15:35:01.984Z,18.00
2022-11-06T15:37:56.103Z,17.63
2022-11-06T15:40:43.005Z,19.75
2022-11-06T15:43:41.725Z,18.05
2022-11-06T15:46:37.411Z,16.77
2022-11-06T15:49:35.010Z,17.85
2022-11-06T15:52:41.970Z,18.88
2022-11-06T15:55:49.980Z,18.98
2022-11-06T15:58:46.058Z,25.83
2022-11-06T16:01:50.305Z,25.67
2022-11-06T16:07:38.044Z,23.10
2022-11-06T16:10:41.521Z,26.20
2022-11-06T16:13:34.350Z,22.52
2022-11-06T16:16:53.960Z,17.35
2022-11-06T16:19:51.558Z,15.38
2022-11-06T16:22:47.570Z,17.38
2022-11-06T16:25:29.052Z,17.95
2022-11-06T16:28:28.095Z,14.93
2022-11-06T16:31:24.869Z,16.23
2022-11-06T16:34:51.847Z,19.80
2022-11-06T16:37:35.960Z,28.67
2022-11-06T16:40:50.372Z,27.95
2022-11-06T16:43:49.311Z,24.98
2022-11-06T16:46:47.051Z,28.77
2022-11-06T16:49:57.583Z,28.90
2022-11-06T16:52:43.363Z,30.25
2022-11-06T16:55:34.425Z,32.95
2022-11-06T16:58:34.326Z,30.55
2022-11-06T17:01:21.218Z,31.23
2022-11-06T17:04:05.308Z,32.97
2022-11-06T17:06:51.122Z,29.98
2022-11-06T17:09:45.501Z,27.08
2022-11-06T17:12:45.992Z,28.15
2022-11-06T17:15:38.343Z,33.30
2022-11-06T17:18:23.962Z,28.50
2022-11-06T17:21:11.564Z,25.25
2022-11-06T17:23:48.896Z,25.10
2022-11-06T17:26:53.805Z,31.00
2022-11-06T17:32:20.459Z,37.88
2022-11-06T17:35:10.086Z,55.38
2022-11-06T17:37:59.110Z,51.03
2022-11-06T17:40:53.553Z,46.47
2022-11-06T17:43:46.586Z,34.45
2022-11-06T17:46:37.445Z,36.85
2022-11-06T17:49:28.011Z,33.70
2022-11-06T17:52:17.890Z,33.78
2022-11-06T17:55:06.809Z,37.28
2022-11-06T17:57:53.446Z,34.83
2022-11-06T18:00:43.041Z,32.00
2022-11-06T18:03:49.336Z,29.33
2022-11-06T18:06:34.729Z,29.67
2022-11-06T18:09:33.653Z,42.72
2022-11-06T18:12:17.710Z,54.08
2022-11-06T18:15:09.088Z,50.75
2022-11-06T18:18:00.780Z,60.53
2022-11-06T18:21:07.422Z,81.72
2022-11-06T18:24:00.318Z,61.72
2022-11-06T18:26:49.430Z,67.38
2022-11-06T18:29:49.780Z,58.95
2022-11-06T18:32:43.860Z,73.88
2022-11-06T18:35:37.727Z,61.03
2022-11-06T18:38:19.560Z,54.47
2022-11-06T18:41:17.535Z,53.15
2022-11-06T18:44:08.371Z,51.80
2022-11-06T18:46:56.074Z,49.10
2022-11-06T18:49:43.349Z,56.85
2022-11-06T18:52:55.854Z,53.97
2022-11-06T18:56:00.274Z,58.65
2022-11-06T18:58:49.083Z,58.95
2022-11-06T19:01:38.131Z,73.63
2022-11-06T19:04:26.179Z,82.55
2022-11-06T19:07:10.192Z,78.05
2022-11-06T19:10:05.179Z,94.60
2022-11-06T19:13:00.400Z,96.03
2022-11-06T19:18:43.043Z,86.65
2022-11-06T19:21:46.121Z,74.20
2022-11-06T19:24:47.517Z,67.40
2022-11-06T19:27:33.502Z,60.90
2022-11-06T19:30:20.201Z,83.90
2022-11-06T19:35:57.390Z,95.90
2022-11-06T19:38:44.320Z,94.47
2022-11-06T19:41:32.921Z,89.22
2022-11-06T19:44:14.144Z,97.07
2022-11-06T19:47:02.222Z,84.28
2022-11-06T19:49:49.062Z,85.82
2022-11-06T19:52:41.452Z,93.50
2022-11-06T19:55:27.918Z,112.07
2022-11-06T19:58:27.103Z,100.18
2022-11-06T20:01:24.042Z,98.88
2022-11-06T20:04:08.095Z,93.10
2022-11-06T20:07:05.981Z,87.43
2022-11-06T20:09:50.114Z,79.15
2022-11-06T20:12:40.090Z,87.32
2022-11-06T20:15:29.175Z,82.65
2022-11-06T20:18:13.785Z,76.18
2022-11-06T20:23:38.979Z,70.78
2022-11-06T20:26:19.600Z,78.32
2022-11-06T20:29:04.060Z,75.90
2022-11-06T20:31:49.356Z,76.50
2022-11-06T20:34:35.592Z,72.55
2022-11-06T20:37:25.704Z,75.93
2022-11-06T20:40:08.991Z,79.15
2022-11-06T20:42:57.055Z,76.75
2022-11-06T20:45:50.749Z,78.35
2022-11-06T20:48:30.774Z,68.45
2022-11-06T20:51:48.328Z,73.78
2022-11-06T20:54:43.700Z,101.18
2022-11-06T20:57:33.063Z,101.07
2022-11-06T21:00:13.017Z,93.15
2022-11-06T21:02:54.290Z,93.97
2022-11-06T21:05:43.050Z,126.30
2022-11-06T21:08:30.782Z,106.63
2022-11-06T21:11:18.310Z,118.68
2022-11-06T21:14:18.345Z,91.13
2022-11-06T21:16:56.577Z,87.05
2022-11-06T21:19:45.809Z,89.55
2022-11-06T21:22:35.063Z,89.35
2022-11-06T21:25:19.041Z,85.90
2022-11-06T21:28:05.517Z,77.60
2022-11-06T21:30:57.789Z,73.38
2022-11-06T21:33:40.138Z,67.53
2022-11-06T21:36:25.960Z,71.55
2022-11-06T21:39:19.559Z,66.30
2022-11-06T21:42:05.804Z,63.30
2022-11-06T21:44:54.020Z,66.53
2022-11-06T21:47:45.726Z,69.65
2022-11-06T21:50:31.036Z,63.55
2022-11-06T21:53:29.013Z,68.28
2022-11-06T21:56:19.995Z,66.13
2022-11-06T21:59:04.725Z,71.75
2022-11-06T22:01:51.491Z,72.53
2022-11-06T22:04:36.052Z,76.10
2022-11-06T22:07:18.514Z,76.88
2022-11-06T22:10:05.343Z,73.85
2022-11-06T22:12:45.484Z,80.85
2022-11-06T22:15:35.069Z,77.70
2022-11-06T22:18:14.572Z,81.63
2022-11-06T22:20:54.156Z,73.22
2022-11-06T22:23:38.506Z,75.97
2022-11-06T22:29:12.000Z,69.00
2022-11-06T22:34:32.996Z,75.63
2022-11-06T22:37:16.514Z,83.80
2022-11-06T22:40:06.147Z,82.50
2022-11-06T22:42:52.037Z,88.65
2022-11-06T22:45:34.052Z,87.28
2022-11-06T22:48:25.949Z,82.95
2022-11-06T22:51:15.333Z,80.90
2022-11-06T22:53:54.247Z,79.65
2022-11-06T22:56:37.020Z,91.93
2022-11-06T22:59:22.047Z,88.78
2022-11-06T23:02:10.880Z,89.30
2022-11-06T23:05:02.793Z,82.28
2022-11-06T23:07:47.602Z,93.50
2022-11-06T23:10:36.159Z,85.18
2022-11-06T23:13:16.251Z,81.63
2022-11-06T23:16:13.239Z,85.25
2022-11-06T23:18:53.412Z,85.88
2022-11-06T23:21:33.571Z,92.05
2022-11-06T23:24:14.522Z,95.63
2022-11-06T23:27:00.867Z,92.43
2022-11-06T23:29:39.994Z,85.97
2022-11-06T23:32:28.927Z,78.05
2022-11-06T23:35:11.655Z,74.35
2022-11-06T23:38:02.253Z,75.38
2022-11-06T23:40:43.190Z,74.30
2022-11-06T23:43:54.917Z,77.03
2022-11-06T23:46:42.144Z,73.85
2022-11-06T23:49:36.391Z,74.63
2022-11-06T23:52:22.124Z,74.72
2022-11-06T23:55:08.410Z,70.32
2022-11-06T23:57:54.917Z,74.45
